Greenwood, Washington
Current Conditions -  °F | °C
As of 12:53 AM on Friday 24 Oct 2014 (Local Time) from KBFI Reporting Station
Light Rain Light Rain  
Wind Chill: 52°   Ceiling: 6000
Heat Index: 52°   Visibility: 10mi
Dew Point: 45°   Wind: 7mph
Humidity: 77%   Direction: 130°SE
Pressure: 30.03"   Gusts: NA
Location:  47.6716°N, 122.341°W
Report Text: KBFI 240753Z 13006KT 10SM -RA FEW043 BKN060 OVC070 11/07 A3003 RMK AO2 RAB28 SLP167 P0000 T01110072 401670100
Loading
Personal Weather Stations






























Interactive Weather Map
Tropical Storm Tracking
New forecast layout! Learn more

10-Day Weather Forecast

Advertisements
Track Severe Weather on mobile